createdAt,value
2018-05-09T00:01:01.781Z,5.00
2018-05-09T00:03:30.313Z,5.60
2018-05-09T00:05:58.860Z,5.57
2018-05-09T00:08:27.397Z,6.20
2018-05-09T00:10:55.941Z,6.10
2018-05-09T00:13:24.461Z,5.20
2018-05-09T00:15:53.766Z,5.97
2018-05-09T00:18:23.043Z,5.57
2018-05-09T00:20:51.589Z,5.60
2018-05-09T00:23:20.101Z,6.03
2018-05-09T00:25:48.866Z,6.40
2018-05-09T00:28:17.385Z,5.97
2018-05-09T00:30:45.964Z,6.60
2018-05-09T00:33:14.493Z,6.40
2018-05-09T00:35:43.037Z,6.40
2018-05-09T00:38:11.584Z,5.83
2018-05-09T00:40:40.088Z,5.27
2018-05-09T00:43:08.630Z,5.63
2018-05-09T00:45:37.196Z,5.80
2018-05-09T00:48:05.708Z,5.47
2018-05-09T00:50:34.256Z,6.07
2018-05-09T00:53:03.568Z,5.67
2018-05-09T00:55:32.109Z,5.97
2018-05-09T00:58:00.640Z,5.93
2018-05-09T01:00:30.033Z,5.70
2018-05-09T01:02:58.537Z,5.90
2018-05-09T01:05:27.083Z,6.13
2018-05-09T01:07:55.620Z,5.67
2018-05-09T01:10:24.132Z,6.73
2018-05-09T01:12:53.475Z,6.10
2018-05-09T01:15:22.004Z,5.97
2018-05-09T01:17:50.549Z,5.93
2018-05-09T01:20:19.088Z,6.43
2018-05-09T01:22:47.697Z,5.63
2018-05-09T01:25:16.205Z,6.17
2018-05-09T01:27:44.743Z,6.13
2018-05-09T01:30:14.041Z,6.03
2018-05-09T01:32:43.464Z,6.33
2018-05-09T01:35:12.005Z,6.37
2018-05-09T01:37:40.513Z,6.43
2018-05-09T01:40:09.813Z,6.40
2018-05-09T01:42:39.088Z,6.07
2018-05-09T01:45:07.661Z,5.50
2018-05-09T01:47:36.166Z,6.07
2018-05-09T01:50:04.484Z,6.83
2018-05-09T01:52:33.053Z,6.50
2018-05-09T01:55:01.713Z,6.10
2018-05-09T01:57:30.308Z,5.87
2018-05-09T01:59:59.576Z,6.23
2018-05-09T02:02:28.136Z,6.07
2018-05-09T02:04:56.641Z,6.27
2018-05-09T02:07:25.178Z,6.20
2018-05-09T02:09:53.867Z,6.00
2018-05-09T02:12:22.385Z,6.33
2018-05-09T02:14:50.615Z,6.57
2018-05-09T02:17:18.987Z,5.73
2018-05-09T02:19:47.519Z,6.30
2018-05-09T02:22:16.024Z,6.70
2018-05-09T02:24:45.324Z,6.30
2018-05-09T02:27:13.870Z,5.90
2018-05-09T02:29:42.389Z,5.90
2018-05-09T02:32:10.921Z,6.37
2018-05-09T02:34:39.508Z,6.40
2018-05-09T02:37:08.052Z,6.00
2018-05-09T02:39:36.569Z,6.33
2018-05-09T02:42:04.793Z,6.17
2018-05-09T02:44:33.334Z,5.87
2018-05-09T02:47:01.859Z,6.20
2018-05-09T02:49:30.417Z,6.33
2018-05-09T02:51:59.725Z,6.40
2018-05-09T02:54:28.263Z,6.03
2018-05-09T02:56:56.797Z,7.27
2018-05-09T02:59:25.332Z,7.23
2018-05-09T03:01:53.692Z,6.63
2018-05-09T03:04:22.201Z,6.87
2018-05-09T03:06:51.511Z,7.00
2018-05-09T03:09:20.033Z,6.93
2018-05-09T03:11:49.331Z,6.10
2018-05-09T03:14:17.841Z,6.80
2018-05-09T03:16:46.374Z,5.93
2018-05-09T03:19:14.894Z,6.67
2018-05-09T03:21:43.448Z,7.13
2018-05-09T03:24:11.952Z,6.40
2018-05-09T03:26:40.488Z,6.80
2018-05-09T03:29:09.024Z,6.30
2018-05-09T03:31:37.553Z,6.90
2018-05-09T03:34:06.092Z,7.13
2018-05-09T03:36:34.595Z,7.17
2018-05-09T03:39:03.144Z,7.53
2018-05-09T03:41:32.420Z,7.43
2018-05-09T03:44:00.959Z,7.23
2018-05-09T03:46:29.560Z,6.77
2018-05-09T03:48:58.109Z,7.30
2018-05-09T03:51:26.649Z,6.67
2018-05-09T03:53:54.956Z,7.00
2018-05-09T03:56:23.492Z,7.40
2018-05-09T03:58:52.621Z,7.53
2018-05-09T04:01:22.102Z,7.20
2018-05-09T04:04:01.645Z,7.13
2018-05-09T04:06:41.317Z,7.63
2018-05-09T04:09:21.104Z,7.07
2018-05-09T04:11:49.649Z,7.67
2018-05-09T04:14:18.960Z,7.57
2018-05-09T04:16:47.550Z,6.73
2018-05-09T04:19:16.094Z,6.50
2018-05-09T04:21:44.613Z,7.10
2018-05-09T04:24:13.159Z,7.00
2018-05-09T04:26:41.685Z,7.43
2018-05-09T04:29:11.046Z,7.43
2018-05-09T04:31:39.559Z,7.10
2018-05-09T04:34:08.104Z,7.70
2018-05-09T04:36:36.644Z,7.87
2018-05-09T04:39:04.525Z,7.33
2018-05-09T04:41:33.060Z,6.87
2018-05-09T04:44:01.616Z,8.23
2018-05-09T04:46:30.170Z,7.27
2018-05-09T04:48:58.797Z,6.73
2018-05-09T04:51:27.502Z,7.50
2018-05-09T04:53:56.073Z,8.10
2018-05-09T04:56:25.368Z,8.20
2018-05-09T04:58:54.677Z,7.23
2018-05-09T05:01:24.209Z,7.70
2018-05-09T05:03:52.720Z,7.10
2018-05-09T05:06:21.292Z,6.70
2018-05-09T05:08:49.881Z,6.57
2018-05-09T05:11:18.490Z,7.40
2018-05-09T05:13:47.081Z,7.13
2018-05-09T05:16:16.462Z,7.03
2018-05-09T05:18:45.065Z,6.33
2018-05-09T05:21:13.645Z,7.10
2018-05-09T05:23:42.244Z,6.90
2018-05-09T05:26:11.636Z,6.57
2018-05-09T05:28:40.204Z,6.73
2018-05-09T05:31:08.794Z,6.97
2018-05-09T05:33:37.362Z,6.83
2018-05-09T05:36:05.970Z,6.80
2018-05-09T05:38:35.380Z,6.93
2018-05-09T05:41:04.685Z,7.17
2018-05-09T05:43:33.305Z,6.73
2018-05-09T05:46:01.885Z,6.70
2018-05-09T05:48:30.515Z,6.23
2018-05-09T05:50:59.104Z,5.30
2018-05-09T05:53:27.706Z,6.27
2018-05-09T05:55:57.171Z,6.73
2018-05-09T05:58:25.833Z,6.23
2018-05-09T06:00:54.445Z,6.90
2018-05-09T06:03:23.070Z,5.50
2018-05-09T06:05:51.653Z,5.70
2018-05-09T06:08:20.240Z,6.40
2018-05-09T06:10:48.817Z,5.37
2018-05-09T06:13:17.413Z,5.87
2018-05-09T06:15:45.997Z,5.43
2018-05-09T06:18:14.579Z,5.30
2018-05-09T06:20:43.157Z,6.03
2018-05-09T06:23:11.449Z,5.53
2018-05-09T06:25:40.050Z,5.13
2018-05-09T06:28:08.668Z,5.30
2018-05-09T06:30:37.253Z,5.50
2018-05-09T06:33:05.834Z,5.90
2018-05-09T06:35:34.422Z,5.80
2018-05-09T06:38:02.965Z,5.40
2018-05-09T06:40:31.584Z,6.20
2018-05-09T06:43:00.152Z,6.13
2018-05-09T06:45:28.724Z,5.37
2018-05-09T06:47:57.345Z,6.07
2018-05-09T06:50:26.693Z,5.70
2018-05-09T06:52:55.301Z,5.70
2018-05-09T06:55:23.903Z,5.50
2018-05-09T06:57:52.485Z,5.70
2018-05-09T07:00:21.129Z,4.83
2018-05-09T07:02:49.686Z,5.23
2018-05-09T07:05:18.450Z,5.20
2018-05-09T07:07:47.048Z,5.77
2018-05-09T07:10:15.600Z,4.90
2018-05-09T07:12:44.177Z,4.80
2018-05-09T07:15:12.734Z,5.00
2018-05-09T07:17:41.332Z,4.60
2018-05-09T07:20:09.916Z,4.60
2018-05-09T07:22:38.456Z,4.90
2018-05-09T07:25:07.059Z,4.17
2018-05-09T07:27:35.647Z,4.60
2018-05-09T07:30:03.958Z,4.57
2018-05-09T07:32:33.189Z,4.17
2018-05-09T07:35:01.753Z,4.60
2018-05-09T07:37:30.301Z,4.97
2018-05-09T07:39:58.906Z,4.23
2018-05-09T07:42:27.489Z,4.77
2018-05-09T07:44:56.098Z,4.20
2018-05-09T07:47:24.717Z,4.00
2018-05-09T07:49:53.325Z,4.20
2018-05-09T07:52:21.889Z,4.30
2018-05-09T07:54:52.454Z,3.90
2018-05-09T07:57:21.031Z,4.07
2018-05-09T07:59:49.593Z,4.23
2018-05-09T08:02:18.155Z,3.93
2018-05-09T08:04:46.689Z,4.03
2018-05-09T08:07:15.279Z,4.37
2018-05-09T08:09:43.877Z,4.70
2018-05-09T08:12:12.434Z,3.87
2018-05-09T08:14:41.026Z,4.20
2018-05-09T08:17:09.584Z,4.00
2018-05-09T08:19:38.157Z,4.20
2018-05-09T08:22:06.769Z,4.67
2018-05-09T08:24:35.345Z,4.50
2018-05-09T08:27:03.913Z,4.57
2018-05-09T08:29:32.466Z,4.70
2018-05-09T08:32:01.074Z,4.10
2018-05-09T08:34:29.677Z,4.53
2018-05-09T08:36:58.246Z,4.23
2018-05-09T08:39:26.829Z,4.07
2018-05-09T08:41:55.078Z,4.40
2018-05-09T08:44:23.674Z,4.97
2018-05-09T08:46:52.258Z,4.70
2018-05-09T08:49:20.851Z,4.37
2018-05-09T08:51:49.623Z,4.17
2018-05-09T08:54:18.214Z,4.80
2018-05-09T08:56:46.793Z,4.43
2018-05-09T08:59:15.356Z,4.33
2018-05-09T09:01:43.942Z,4.50
2018-05-09T09:04:13.363Z,4.00
2018-05-09T09:06:42.080Z,4.60
2018-05-09T09:09:10.660Z,4.53
2018-05-09T09:11:39.261Z,4.97
2018-05-09T09:14:08.869Z,4.97
2018-05-09T09:16:38.477Z,4.20
2018-05-09T09:19:08.064Z,4.03
2018-05-09T09:21:37.662Z,3.87
2018-05-09T09:24:07.257Z,3.80
2018-05-09T09:26:36.848Z,3.63
2018-05-09T09:29:06.449Z,3.17
2018-05-09T09:31:36.024Z,4.23
2018-05-09T09:34:05.641Z,4.13
2018-05-09T09:36:35.221Z,3.80
2018-05-09T09:39:05.435Z,4.00
2018-05-09T09:41:34.144Z,4.10
2018-05-09T09:44:02.817Z,3.67
2018-05-09T09:46:32.406Z,3.90
2018-05-09T09:49:00.988Z,3.87
2018-05-09T09:51:29.609Z,4.33
2018-05-09T09:53:58.198Z,4.07
2018-05-09T09:56:26.745Z,4.43
2018-05-09T09:58:56.877Z,4.47
2018-05-09T10:01:26.483Z,4.00
2018-05-09T10:03:56.111Z,4.43
2018-05-09T10:06:25.700Z,4.30
2018-05-09T10:08:54.282Z,4.67
2018-05-09T10:11:22.950Z,4.80
2018-05-09T10:13:51.547Z,4.10
2018-05-09T10:16:21.230Z,4.00
2018-05-09T10:18:50.980Z,3.83
2018-05-09T10:21:19.549Z,4.00
2018-05-09T10:23:48.144Z,4.13
2018-05-09T10:26:16.727Z,3.80
2018-05-09T10:28:46.330Z,3.20
2018-05-09T10:31:15.718Z,3.67
2018-05-09T10:33:45.338Z,3.53
2018-05-09T10:36:14.945Z,4.20
2018-05-09T10:38:44.544Z,4.07
2018-05-09T10:41:13.156Z,3.83
2018-05-09T10:43:41.791Z,3.67
2018-05-09T10:46:10.370Z,3.70
2018-05-09T10:48:38.972Z,3.63
2018-05-09T10:51:07.525Z,3.60
2018-05-09T10:53:36.116Z,3.40
2018-05-09T10:56:04.687Z,3.70
2018-05-09T10:58:34.069Z,3.97
2018-05-09T11:01:02.665Z,3.83
2018-05-09T11:03:31.258Z,3.90
2018-05-09T11:05:59.839Z,3.50
2018-05-09T11:08:29.174Z,3.93
2018-05-09T11:10:57.709Z,3.87
2018-05-09T11:13:26.293Z,3.67
2018-05-09T11:15:54.671Z,4.00
2018-05-09T11:18:24.272Z,3.90
2018-05-09T11:20:53.903Z,3.80
2018-05-09T11:23:23.491Z,4.20
2018-05-09T11:25:53.130Z,3.40
2018-05-09T11:28:21.681Z,3.80
2018-05-09T11:30:50.293Z,4.00
2018-05-09T11:33:18.934Z,3.80
2018-05-09T11:35:47.530Z,3.73
2018-05-09T11:38:16.116Z,3.60
2018-05-09T11:40:44.708Z,3.97
2018-05-09T11:43:14.031Z,3.73
2018-05-09T11:45:42.657Z,3.87
2018-05-09T11:48:11.233Z,3.60
2018-05-09T11:50:39.818Z,3.87
2018-05-09T11:53:08.440Z,3.93
2018-05-09T11:55:37.201Z,3.90
2018-05-09T11:58:05.819Z,3.73
2018-05-09T12:00:35.230Z,3.73
2018-05-09T12:03:03.933Z,3.60
2018-05-09T12:05:32.526Z,3.20
2018-05-09T12:08:01.160Z,3.10
2018-05-09T12:10:29.875Z,3.37
2018-05-09T12:12:58.571Z,3.20
2018-05-09T12:15:27.157Z,3.10
2018-05-09T12:17:55.521Z,3.03
2018-05-09T12:20:24.872Z,3.20
2018-05-09T12:22:53.479Z,3.10
2018-05-09T12:25:22.048Z,3.30
2018-05-09T12:27:50.632Z,3.00
2018-05-09T12:30:19.215Z,3.53
2018-05-09T12:32:47.833Z,3.10
2018-05-09T12:35:16.436Z,2.63
2018-05-09T12:37:45.000Z,2.90
2018-05-09T12:40:13.601Z,3.30
2018-05-09T12:42:42.147Z,3.63
2018-05-09T12:45:10.741Z,3.13
2018-05-09T12:47:39.039Z,2.90
2018-05-09T12:50:07.813Z,3.07
2018-05-09T12:52:37.346Z,3.47
2018-05-09T12:55:05.941Z,3.17
2018-05-09T12:57:34.510Z,3.10
2018-05-09T13:00:03.077Z,4.57
2018-05-09T13:02:32.454Z,3.63
2018-05-09T13:05:01.039Z,3.13
2018-05-09T13:07:29.666Z,3.53
2018-05-09T13:09:59.280Z,2.90
2018-05-09T13:12:28.909Z,3.60
2018-05-09T13:14:58.538Z,3.17
2018-05-09T13:17:28.120Z,2.90
2018-05-09T13:19:57.730Z,3.13
2018-05-09T13:22:27.308Z,2.73
2018-05-09T13:24:56.912Z,3.10
2018-05-09T13:27:26.519Z,3.13
2018-05-09T13:29:56.111Z,2.90
2018-05-09T13:32:25.714Z,3.00
2018-05-09T13:34:55.327Z,2.60
2018-05-09T13:37:25.916Z,3.22
2018-05-09T13:39:55.518Z,3.17
2018-05-09T13:42:25.621Z,3.00
2018-05-09T13:44:55.272Z,3.00
2018-05-09T13:47:24.576Z,3.00
2018-05-09T13:49:54.352Z,3.33
2018-05-09T13:52:24.071Z,3.10
2018-05-09T13:54:53.663Z,3.00
2018-05-09T13:57:23.247Z,2.63
2018-05-09T13:59:52.821Z,3.40
2018-05-09T14:02:22.393Z,3.33
2018-05-09T14:04:52.046Z,3.40
2018-05-09T14:07:21.637Z,2.70
2018-05-09T14:09:51.279Z,3.20
2018-05-09T14:12:20.997Z,3.07
2018-05-09T14:14:50.589Z,3.40
2018-05-09T14:17:25.097Z,3.37
2018-05-09T14:19:54.711Z,2.77
2018-05-09T14:22:24.320Z,2.92
2018-05-09T14:24:53.931Z,3.13
2018-05-09T14:27:23.616Z,3.33
2018-05-09T14:29:53.351Z,3.07
2018-05-09T14:32:22.963Z,2.90
2018-05-09T14:34:53.128Z,3.17
2018-05-09T14:37:22.757Z,3.33
2018-05-09T14:39:52.312Z,3.07
2018-05-09T14:42:22.455Z,3.10
2018-05-09T14:44:52.549Z,2.80
2018-05-09T14:47:22.700Z,3.30
2018-05-09T14:49:52.860Z,3.00
2018-05-09T14:52:23.046Z,3.25
2018-05-09T14:54:56.634Z,3.10
2018-05-09T14:57:26.752Z,3.28
2018-05-09T14:59:57.879Z,2.92
2018-05-09T15:02:28.044Z,2.90
2018-05-09T15:04:58.425Z,2.90
2018-05-09T15:07:28.822Z,3.08
2018-05-09T15:09:59.005Z,2.80
2018-05-09T15:12:29.140Z,3.25
2018-05-09T15:14:59.276Z,3.08
2018-05-09T15:17:29.454Z,3.10
2018-05-09T15:19:59.612Z,2.95
2018-05-09T15:22:29.801Z,2.87
2018-05-09T15:24:59.979Z,3.15
2018-05-09T15:27:30.149Z,3.03
2018-05-09T15:30:00.273Z,2.92
2018-05-09T15:32:30.800Z,3.12
2018-05-09T15:35:00.965Z,3.20
2018-05-09T15:37:30.596Z,2.90
2018-05-09T15:40:00.184Z,3.10
2018-05-09T15:42:29.776Z,3.23
2018-05-09T15:44:59.356Z,3.10
2018-05-09T15:47:28.989Z,3.17
2018-05-09T15:49:58.385Z,3.30
2018-05-09T15:52:27.744Z,3.07
2018-05-09T15:54:56.397Z,3.37
2018-05-09T15:57:24.949Z,3.10
2018-05-09T15:59:53.557Z,3.43
2018-05-09T16:02:22.868Z,3.40
2018-05-09T16:04:51.502Z,3.53
2018-05-09T16:07:20.269Z,3.13
2018-05-09T16:09:48.888Z,3.13
2018-05-09T16:12:17.462Z,3.20
2018-05-09T16:14:46.257Z,3.17
2018-05-09T16:17:14.862Z,3.27
2018-05-09T16:19:44.209Z,4.23
2018-05-09T16:22:12.827Z,3.67
2018-05-09T16:24:41.385Z,3.63
2018-05-09T16:27:10.000Z,2.80
2018-05-09T16:29:38.606Z,3.53
2018-05-09T16:32:07.223Z,3.27
2018-05-09T16:34:35.777Z,3.33
2018-05-09T16:37:04.126Z,3.33
2018-05-09T16:39:33.200Z,3.53
2018-05-09T16:42:01.884Z,3.20
2018-05-09T16:44:30.464Z,3.40
2018-05-09T16:46:59.068Z,3.27
2018-05-09T16:49:27.659Z,3.13
2018-05-09T16:51:56.348Z,3.20
2018-05-09T16:54:24.930Z,2.80
2018-05-09T16:56:54.437Z,3.40
2018-05-09T16:59:22.998Z,3.60
2018-05-09T17:01:51.618Z,3.27
2018-05-09T17:04:20.222Z,3.30
2018-05-09T17:06:48.829Z,3.27
2018-05-09T17:09:17.421Z,3.27
2018-05-09T17:11:46.130Z,3.67
2018-05-09T17:14:14.853Z,3.20
2018-05-09T17:16:43.441Z,3.23
2018-05-09T17:19:12.065Z,3.50
2018-05-09T17:21:51.734Z,3.23
2018-05-09T17:24:20.369Z,3.50
2018-05-09T17:26:48.977Z,4.00
2018-05-09T17:29:17.579Z,3.50
2018-05-09T17:31:46.198Z,3.20
2018-05-09T17:34:14.820Z,3.30
2018-05-09T17:36:43.416Z,3.40
2018-05-09T17:39:11.984Z,3.50
2018-05-09T17:41:40.592Z,3.53
2018-05-09T17:44:09.182Z,3.30
2018-05-09T17:46:37.751Z,3.80
2018-05-09T17:49:06.327Z,3.63
2018-05-09T17:51:34.937Z,3.70
2018-05-09T17:54:03.506Z,3.37
2018-05-09T17:56:32.125Z,4.00
2018-05-09T17:59:01.536Z,3.50
2018-05-09T18:01:30.288Z,3.37
2018-05-09T18:03:58.933Z,3.20
2018-05-09T18:06:27.699Z,3.67
2018-05-09T18:08:57.054Z,3.53
2018-05-09T18:11:25.657Z,3.60
2018-05-09T18:13:54.221Z,3.90
2018-05-09T18:16:22.794Z,3.70
2018-05-09T18:18:51.401Z,3.80
2018-05-09T18:21:19.983Z,3.30
2018-05-09T18:23:48.529Z,3.90
2018-05-09T18:26:17.112Z,3.43
2018-05-09T18:28:46.417Z,3.90
2018-05-09T18:31:14.981Z,4.70
2018-05-09T18:33:43.574Z,4.30
2018-05-09T18:36:12.179Z,3.80
2018-05-09T18:38:40.754Z,3.83
2018-05-09T18:41:13.521Z,3.87
2018-05-09T18:43:42.136Z,3.33
2018-05-09T18:46:10.739Z,3.90
2018-05-09T18:48:39.485Z,3.80
2018-05-09T18:51:08.101Z,3.53
2018-05-09T18:53:36.734Z,3.47
2018-05-09T18:56:05.428Z,3.67
2018-05-09T18:58:33.957Z,4.27
2018-05-09T19:01:02.362Z,3.73
2018-05-09T19:03:30.941Z,3.60
2018-05-09T19:05:59.514Z,4.03
2018-05-09T19:08:28.045Z,3.77
2018-05-09T19:10:56.641Z,3.60
2018-05-09T19:13:25.200Z,4.10
2018-05-09T19:15:53.540Z,3.90
2018-05-09T19:18:22.117Z,3.43
2018-05-09T19:20:50.793Z,3.30
2018-05-09T19:23:19.098Z,3.27
2018-05-09T19:25:47.705Z,3.07
2018-05-09T19:28:16.299Z,3.10
2018-05-09T19:30:44.994Z,3.50
2018-05-09T19:33:13.879Z,3.50
2018-05-09T19:35:42.469Z,2.80
2018-05-09T19:38:11.082Z,3.47
2018-05-09T19:40:39.666Z,3.17
2018-05-09T19:43:08.302Z,3.33
2018-05-09T19:45:36.869Z,2.93
2018-05-09T19:48:06.229Z,3.10
2018-05-09T19:50:34.919Z,3.27
2018-05-09T19:53:03.506Z,2.87
2018-05-09T19:55:32.116Z,3.80
2018-05-09T19:58:00.702Z,3.50
2018-05-09T20:00:29.347Z,3.87
2018-05-09T20:02:58.207Z,3.87
2018-05-09T20:05:27.705Z,3.53
2018-05-09T20:07:56.290Z,3.30
2018-05-09T20:10:24.825Z,4.20
2018-05-09T20:12:53.437Z,5.00
2018-05-09T20:15:22.783Z,4.30
2018-05-09T20:17:51.405Z,4.30
2018-05-09T20:20:19.973Z,4.30
2018-05-09T20:22:48.643Z,4.40
2018-05-09T20:25:17.348Z,4.07
2018-05-09T20:27:45.971Z,4.13
2018-05-09T20:30:20.696Z,4.17
2018-05-09T20:32:50.065Z,3.83
2018-05-09T20:35:18.638Z,4.23
2018-05-09T20:37:47.245Z,4.23
2018-05-09T20:40:15.854Z,4.07
2018-05-09T20:42:45.177Z,3.80
2018-05-09T20:45:13.789Z,4.03
2018-05-09T20:47:42.396Z,3.83
2018-05-09T20:50:11.187Z,4.50
2018-05-09T20:52:39.752Z,4.27
2018-05-09T20:58:14.133Z,3.53
2018-05-09T21:00:42.686Z,3.87
2018-05-09T21:03:10.926Z,4.03
2018-05-09T21:05:39.481Z,3.97
2018-05-09T21:08:08.051Z,4.00
2018-05-09T21:10:37.331Z,4.10
2018-05-09T21:13:05.917Z,4.47
2018-05-09T21:15:34.430Z,4.40
2018-05-09T21:18:04.017Z,4.13
2018-05-09T21:20:33.288Z,4.63
2018-05-09T21:23:01.836Z,3.83
2018-05-09T21:25:30.421Z,4.03
2018-05-09T21:27:58.651Z,3.93
2018-05-09T21:30:27.196Z,3.83
2018-05-09T21:32:55.712Z,4.60
2018-05-09T21:35:25.055Z,4.00
2018-05-09T21:37:53.770Z,4.00
2018-05-09T21:40:22.308Z,4.30
2018-05-09T21:42:51.584Z,3.90
2018-05-09T21:45:20.124Z,3.83
2018-05-09T21:47:49.650Z,4.27
2018-05-09T21:50:18.085Z,3.93
2018-05-09T21:52:46.728Z,4.27
2018-05-09T21:55:15.245Z,4.47
2018-05-09T21:57:43.820Z,3.93
2018-05-09T22:00:13.099Z,4.00
2018-05-09T22:02:41.685Z,4.63
2018-05-09T22:05:10.995Z,4.10
2018-05-09T22:07:40.303Z,4.00
2018-05-09T22:10:09.631Z,4.40
2018-05-09T22:12:38.140Z,4.13
2018-05-09T22:15:06.700Z,4.40
2018-05-09T22:17:35.204Z,4.50
2018-05-09T22:20:03.438Z,4.13
2018-05-09T22:22:31.947Z,4.53
2018-05-09T22:25:00.492Z,4.33
2018-05-09T22:27:29.979Z,5.00
2018-05-09T22:29:58.560Z,4.13
2018-05-09T22:32:27.069Z,3.90
2018-05-09T22:34:55.630Z,4.53
2018-05-09T22:37:23.981Z,4.40
2018-05-09T22:39:54.556Z,4.13
2018-05-09T22:42:23.862Z,4.20
2018-05-09T22:44:52.372Z,4.20
2018-05-09T22:47:20.915Z,4.47
2018-05-09T22:49:49.446Z,5.00
2018-05-09T22:52:17.984Z,4.20
2018-05-09T22:54:47.260Z,4.50
2018-05-09T22:57:15.799Z,4.70
2018-05-09T22:59:44.344Z,4.57
2018-05-09T23:02:13.621Z,4.90
2018-05-09T23:04:42.160Z,5.30
2018-05-09T23:07:10.669Z,4.70
2018-05-09T23:09:39.204Z,4.80
2018-05-09T23:12:07.708Z,5.20
2018-05-09T23:14:36.256Z,6.27
2018-05-09T23:17:05.543Z,5.43
2018-05-09T23:19:34.851Z,5.33
2018-05-09T23:22:04.153Z,6.00
2018-05-09T23:24:32.466Z,5.33
2018-05-09T23:27:00.997Z,5.37
2018-05-09T23:29:29.732Z,5.47
2018-05-09T23:31:58.278Z,5.43
2018-05-09T23:34:27.556Z,5.73
2018-05-09T23:36:56.120Z,6.30
2018-05-09T23:39:24.629Z,5.80
2018-05-09T23:41:59.802Z,6.50
2018-05-09T23:44:28.353Z,6.40
2018-05-09T23:46:56.868Z,5.80
2018-05-09T23:49:25.408Z,5.60
2018-05-09T23:51:53.915Z,6.90
2018-05-09T23:54:22.455Z,6.33
2018-05-09T23:56:50.995Z,6.57
2018-05-09T23:59:20.103Z,5.90
